Time;durP1;ratioP1;P1;durP2;ratioP2;P2;SDS_P1;SDS_P2;PMS_P1;PMS_P2;Temp;Humidity;BMP_temperature;BMP_pressure;BME280_temperature;BME280_humidity;BME280_pressure;Samples;Min_cycle;Max_cycle;Signal;HPM_P1;HPM_P2
2022/03/17 00:01:09;;;;;;;22.83;13.38;;;11.00;99.90;;;;;;5076717;28;20044;-78
2022/03/17 00:03:34;;;;;;;26.02;15.00;;;11.00;99.90;;;;;;5078683;28;20079;-79
2022/03/17 00:06:00;;;;;;;25.23;14.30;;;10.90;99.90;;;;;;5095887;28;20079;-78
2022/03/17 00:08:26;;;;;;;26.05;14.32;;;11.40;99.90;;;;;;5096939;28;20378;-78
2022/03/17 00:10:52;;;;;;;24.10;14.02;;;10.80;99.90;;;;;;5077362;28;20043;-78
2022/03/17 00:13:19;;;;;;;24.73;14.25;;;11.70;99.90;;;;;;5076786;28;20047;-78
2022/03/17 00:15:44;;;;;;;24.38;13.98;;;10.80;99.90;;;;;;5077169;28;20047;-78
2022/03/17 00:18:11;;;;;;;26.13;14.23;;;10.70;99.90;;;;;;5095208;28;20063;-78
2022/03/17 00:20:37;;;;;;;23.58;14.27;;;10.70;99.90;;;;;;5095483;28;20048;-78
2022/03/17 00:23:04;;;;;;;25.70;14.50;;;10.70;99.90;;;;;;5094797;28;20052;-78
2022/03/17 00:25:30;;;;;;;24.75;14.43;;;11.30;99.90;;;;;;5059878;28;20051;-78
2022/03/17 00:27:57;;;;;;;24.27;14.00;;;10.60;99.90;;;;;;5059938;28;20044;-78
2022/03/17 00:30:23;;;;;;;25.13;14.50;;;11.30;99.90;;;;;;5059481;28;20066;-78
2022/03/17 00:32:49;;;;;;;26.45;15.10;;;11.10;99.90;;;;;;5060026;28;20475;-78
2022/03/17 00:37:59;;;;;;;23.75;14.25;;;11.40;99.90;;;;;;5076905;28;20048;-78
2022/03/17 00:40:25;;;;;;;25.73;14.30;;;10.80;99.90;;;;;;5060031;28;20140;-78
2022/03/17 00:42:51;;;;;;;26.67;14.88;;;10.70;99.90;;;;;;5076659;28;20082;-78
2022/03/17 00:45:17;;;;;;;25.95;14.13;;;10.70;99.90;;;;;;5059562;28;20036;-78
2022/03/17 00:47:43;;;;;;;26.85;15.43;;;11.20;99.90;;;;;;5060081;28;20052;-78
2022/03/17 00:50:10;;;;;;;24.15;14.23;;;10.80;99.90;;;;;;5059777;28;20387;-78
2022/03/17 00:52:36;;;;;;;24.48;14.23;;;11.50;99.90;;;;;;5059313;28;20047;-78
2022/03/17 00:55:05;;;;;;;26.20;14.90;;;10.80;99.90;;;;;;5094159;28;20044;-78
2022/03/17 00:57:31;;;;;;;24.83;14.18;;;10.80;99.90;;;;;;5075907;28;20044;-78
2022/03/17 00:59:57;;;;;;;25.60;15.38;;;11.30;99.90;;;;;;5076234;28;20098;-78
2022/03/17 01:02:22;;;;;;;24.35;14.75;;;11.60;99.90;;;;;;5076270;28;20439;-78
2022/03/17 01:04:48;;;;;;;23.48;14.52;;;10.90;99.90;;;;;;5059446;28;20040;-78
2022/03/17 01:07:14;;;;;;;24.15;14.30;;;10.90;99.90;;;;;;5093869;28;20470;-78
2022/03/17 01:09:39;;;;;;;24.55;15.20;;;11.40;99.90;;;;;;5060407;28;20040;-78
2022/03/17 01:12:05;;;;;;;26.40;14.80;;;10.90;99.90;;;;;;5076109;28;20502;-78
2022/03/17 01:14:31;;;;;;;25.98;15.00;;;10.80;99.90;;;;;;5076183;28;20093;-78
2022/03/17 01:16:57;;;;;;;24.65;14.65;;;10.80;99.90;;;;;;5094308;28;20040;-78
2022/03/17 01:19:23;;;;;;;27.13;15.10;;;10.80;99.90;;;;;;5094589;28;20509;-78
2022/03/17 01:21:50;;;;;;;27.35;15.65;;;10.80;99.90;;;;;;5058880;28;20044;-78
2022/03/17 01:24:17;;;;;;;26.08;15.60;;;10.90;99.90;;;;;;5059526;28;20135;-78
2022/03/17 01:26:42;;;;;;;28.70;16.08;;;10.90;99.90;;;;;;5058927;28;20035;-78
2022/03/17 01:29:09;;;;;;;29.33;15.93;;;11.00;99.90;;;;;;5058965;28;20055;-78
2022/03/17 01:31:35;;;;;;;28.02;16.58;;;10.80;99.90;;;;;;5059762;28;20090;-79
2022/03/17 01:34:01;;;;;;;29.35;16.80;;;10.60;99.90;;;;;;5058474;28;20093;-78
2022/03/17 01:36:27;;;;;;;29.67;16.92;;;10.50;99.90;;;;;;5092703;28;20032;-78
2022/03/17 01:38:53;;;;;;;27.27;16.60;;;10.50;99.90;;;;;;5059028;28;20047;-78
2022/03/17 01:41:19;;;;;;;30.23;17.92;;;10.40;99.90;;;;;;5092426;28;20122;-78
2022/03/17 01:46:19;;;;;;;31.75;17.70;;;10.20;99.90;;;;;;5099001;28;20044;-80
2022/03/17 01:48:44;;;;;;;31.85;17.85;;;10.10;99.90;;;;;;5067372;28;20040;-82
2022/03/17 01:51:10;;;;;;;28.90;17.42;;;10.20;99.90;;;;;;5086531;28;20146;-82
2022/03/17 01:53:36;;;;;;;30.67;18.02;;;10.20;99.90;;;;;;5088383;28;20127;-82
2022/03/17 01:56:03;;;;;;;32.15;18.13;;;10.00;99.90;;;;;;5071641;28;20132;-82
2022/03/17 01:58:29;;;;;;;30.27;17.63;;;10.00;99.90;;;;;;5088247;28;20089;-82
2022/03/17 02:00:55;;;;;;;31.60;18.05;;;10.00;99.90;;;;;;5088736;28;20040;-82
2022/03/17 02:03:20;;;;;;;30.42;17.95;;;10.00;99.90;;;;;;5088550;28;20044;-82
2022/03/17 02:05:46;;;;;;;31.17;17.75;;;10.00;99.90;;;;;;5088404;28;20109;-82
2022/03/17 02:08:15;;;;;;;33.05;17.95;;;10.00;99.90;;;;;;5088031;28;20052;-82
2022/03/17 02:13:26;;;;;;;32.80;18.80;;;10.30;99.90;;;;;;5086734;28;20044;-82
2022/03/17 02:15:53;;;;;;;33.08;18.63;;;10.00;99.90;;;;;;5074193;22;20041;-82
2022/03/17 02:18:20;;;;;;;32.83;19.35;;;10.00;99.90;;;;;;5066673;28;20456;-82
2022/03/17 02:20:46;;;;;;;32.30;18.58;;;10.00;99.90;;;;;;5082920;28;20060;-82
2022/03/17 02:26:01;;;;;;;32.10;18.35;;;10.30;99.90;;;;;;5083809;28;20036;-82
2022/03/17 02:28:29;;;;;;;32.33;19.63;;;10.10;99.90;;;;;;5083061;28;20106;-82
2022/03/17 02:30:56;;;;;;;33.08;19.40;;;10.10;99.90;;;;;;5066894;28;20487;-82
2022/03/17 02:33:22;;;;;;;37.10;20.42;;;10.50;99.90;;;;;;5083596;28;20447;-82
2022/03/17 02:35:49;;;;;;;32.33;19.25;;;10.00;99.90;;;;;;5082503;22;20097;-82
2022/03/17 02:38:16;;;;;;;35.92;20.23;;;10.10;99.90;;;;;;5082952;28;20067;-82
2022/03/17 02:40:44;;;;;;;36.75;19.73;;;10.00;99.90;;;;;;5082663;28;20044;-82
2022/03/17 02:43:14;;;;;;;33.75;19.30;;;10.60;99.90;;;;;;5076781;22;20052;-82
2022/03/17 02:45:41;;;;;;;38.05;19.85;;;10.30;99.90;;;;;;5069020;28;20059;-82
2022/03/17 02:48:07;;;;;;;35.20;20.35;;;10.10;99.90;;;;;;5069345;28;20051;-82
2022/03/17 02:50:34;;;;;;;37.60;21.13;;;10.60;99.90;;;;;;5077981;22;20079;-82
2022/03/17 02:53:05;;;;;;;34.55;19.60;;;10.10;99.90;;;;;;5083006;22;20047;-82
2022/03/17 02:55:35;;;;;;;35.35;20.52;;;10.10;99.90;;;;;;5078491;22;20455;-82
2022/03/17 02:58:01;;;;;;;35.22;20.17;;;10.10;99.90;;;;;;5081395;22;20108;-82
2022/03/17 03:00:27;;;;;;;36.53;20.75;;;10.10;99.90;;;;;;5074393;28;20048;-82
2022/03/17 03:02:52;;;;;;;36.95;21.50;;;10.30;99.90;;;;;;5074173;28;20095;-82
2022/03/17 03:05:19;;;;;;;37.97;21.20;;;10.70;99.90;;;;;;5073561;28;20043;-82
2022/03/17 03:07:44;;;;;;;37.55;21.02;;;10.00;99.90;;;;;;5076953;22;20521;-82
2022/03/17 03:10:10;;;;;;;40.30;22.67;;;10.20;99.90;;;;;;5070097;28;20076;-82
2022/03/17 03:12:37;;;;;;;39.08;22.33;;;10.40;99.90;;;;;;5067214;28;20080;-82
2022/03/17 03:15:03;;;;;;;39.58;22.35;;;10.30;99.90;;;;;;5082051;22;20033;-82
2022/03/17 03:17:29;;;;;;;40.67;23.40;;;10.00;99.90;;;;;;5127412;27;20043;-82
2022/03/17 03:19:55;;;;;;;47.67;24.98;;;9.90;99.90;;;;;;5110341;27;20087;-82
2022/03/17 03:22:21;;;;;;;47.08;25.48;;;9.80;99.90;;;;;;5109691;27;20047;-82
2022/03/17 03:24:46;;;;;;;46.40;24.58;;;9.80;99.90;;;;;;5109150;27;20102;-82
2022/03/17 03:27:13;;;;;;;47.45;25.75;;;9.70;99.90;;;;;;5143560;27;20480;-82
2022/03/17 03:29:39;;;;;;;50.33;25.63;;;10.10;99.90;;;;;;5127302;27;20043;-82
2022/03/17 03:32:05;;;;;;;50.88;26.05;;;10.00;99.90;;;;;;5110511;27;20466;-82
2022/03/17 03:34:33;;;;;;;57.40;28.20;;;9.50;99.90;;;;;;5110166;27;20118;-82
2022/03/17 03:39:43;;;;;;;53.67;27.13;;;9.40;99.90;;;;;;5126924;27;20188;-83
2022/03/17 03:42:10;;;;;;;55.65;26.90;;;9.40;99.90;;;;;;5126588;27;20070;-82
2022/03/17 03:44:36;;;;;;;59.42;29.70;;;9.30;99.90;;;;;;5109281;27;20554;-82
2022/03/17 03:47:03;;;;;;;62.92;29.73;;;9.30;99.90;;;;;;5109188;27;20050;-82
2022/03/17 03:49:29;;;;;;;56.17;27.63;;;9.30;99.90;;;;;;5145818;27;20130;-83
2022/03/17 03:51:54;;;;;;;56.97;27.98;;;9.90;99.90;;;;;;5109269;27;20075;-82
2022/03/17 03:54:20;;;;;;;56.53;27.77;;;9.40;99.90;;;;;;5126857;27;20039;-82
2022/03/17 03:56:48;;;;;;;66.60;29.15;;;9.50;99.90;;;;;;5092628;27;20098;-82
2022/03/17 03:59:21;;;;;;;63.10;28.55;;;9.30;99.90;;;;;;5143806;27;20138;-82
2022/03/17 04:01:48;;;;;;;61.47;27.10;;;9.60;99.90;;;;;;5126289;27;20047;-82
2022/03/17 04:04:20;;;;;;;66.07;29.05;;;9.60;99.90;;;;;;5109718;27;20046;-82
2022/03/17 04:06:51;;;;;;;67.22;28.38;;;9.30;99.90;;;;;;5126079;27;20047;-82
2022/03/17 04:09:19;;;;;;;67.80;28.73;;;9.30;99.90;;;;;;5126321;27;20049;-82
2022/03/17 04:11:45;;;;;;;65.03;26.88;;;9.90;99.90;;;;;;5108766;27;20035;-83
2022/03/17 04:14:12;;;;;;;53.40;23.67;;;9.60;99.90;;;;;;5125230;27;20039;-82
2022/03/17 04:16:38;;;;;;;28.85;14.77;;;9.50;99.90;;;;;;5108427;27;20111;-83
2022/03/17 04:19:04;;;;;;;19.10;9.35;;;9.90;99.90;;;;;;5108294;27;20076;-83
2022/03/17 04:21:31;;;;;;;14.15;8.00;;;9.10;99.90;;;;;;5109057;27;20047;-82
2022/03/17 04:23:58;;;;;;;13.82;7.80;;;9.00;99.90;;;;;;5109214;27;20054;-82
2022/03/17 04:26:23;;;;;;;17.45;8.80;;;9.30;99.90;;;;;;5144819;27;20070;-82
2022/03/17 04:28:50;;;;;;;16.75;8.38;;;8.90;99.90;;;;;;5125292;27;20485;-82
2022/03/17 04:31:15;;;;;;;15.35;7.70;;;8.60;99.90;;;;;;5108977;27;20035;-82
2022/03/17 04:33:41;;;;;;;15.95;7.88;;;8.40;99.90;;;;;;5125045;27;20110;-82
2022/03/17 04:36:10;;;;;;;14.07;7.32;;;8.10;99.90;;;;;;5107574;27;20068;-83
2022/03/17 04:38:36;;;;;;;13.90;7.57;;;8.50;99.90;;;;;;5108517;27;20067;-83
2022/03/17 04:41:02;;;;;;;13.43;6.93;;;8.00;99.90;;;;;;5124726;27;20043;-83
2022/03/17 04:43:28;;;;;;;11.75;7.13;;;8.00;99.90;;;;;;5125643;27;20039;-82
2022/03/17 04:45:54;;;;;;;10.93;6.30;;;8.60;99.90;;;;;;5107525;27;20043;-82
2022/03/17 04:48:20;;;;;;;12.55;7.65;;;8.70;99.90;;;;;;5107964;27;20047;-82
2022/03/17 04:50:45;;;;;;;11.52;6.80;;;8.40;99.90;;;;;;5124395;27;20062;-82
2022/03/17 04:55:59;;;;;;;14.70;7.70;;;7.80;99.90;;;;;;5124877;27;20043;-82
2022/03/17 04:58:25;;;;;;;16.70;8.85;;;7.80;99.90;;;;;;5107452;27;20529;-82
2022/03/17 05:00:53;;;;;;;19.58;9.18;;;8.20;99.90;;;;;;5107477;27;20066;-82
2022/03/17 05:03:19;;;;;;;19.23;9.20;;;7.50;99.90;;;;;;5124445;27;20422;-82
2022/03/17 05:05:46;;;;;;;17.95;8.73;;;8.20;99.90;;;;;;5124852;27;20069;-82
2022/03/17 05:08:12;;;;;;;21.88;9.32;;;7.70;99.90;;;;;;5124382;27;20047;-82
2022/03/17 05:10:38;;;;;;;25.67;9.18;;;7.80;99.90;;;;;;5125503;27;20486;-83
2022/03/17 05:13:09;;;;;;;21.63;8.95;;;8.20;99.90;;;;;;5106741;27;20088;-82
2022/03/17 05:15:35;;;;;;;20.67;9.27;;;8.10;99.90;;;;;;5123642;27;20042;-82
2022/03/17 05:18:02;;;;;;;23.05;9.65;;;7.60;99.90;;;;;;5123310;27;20102;-82
2022/03/17 05:20:28;;;;;;;26.58;9.45;;;7.60;99.90;;;;;;5142697;27;20039;-82
2022/03/17 05:22:54;;;;;;;21.88;8.45;;;7.60;99.90;;;;;;5090329;28;20055;-83
2022/03/17 05:25:20;;;;;;;20.70;8.18;;;7.60;99.90;;;;;;5123285;28;20046;-82
2022/03/17 05:27:48;;;;;;;23.33;7.53;;;7.60;99.90;;;;;;5142279;28;20125;-83
2022/03/17 05:30:17;;;;;;;18.38;7.05;;;7.80;99.90;;;;;;5107134;28;20393;-83
2022/03/17 05:32:47;;;;;;;23.17;7.82;;;7.50;99.90;;;;;;5124856;28;20398;-83
2022/03/17 05:35:16;;;;;;;16.75;6.43;;;7.50;99.90;;;;;;5143074;28;20074;-83
2022/03/17 05:37:42;;;;;;;16.90;6.75;;;7.60;99.90;;;;;;5107268;28;20043;-82
2022/03/17 05:40:13;;;;;;;17.63;6.32;;;7.50;99.90;;;;;;5107311;28;20075;-82
2022/03/17 05:42:40;;;;;;;20.05;6.55;;;7.50;99.90;;;;;;5107603;28;20050;-82
2022/03/17 05:45:06;;;;;;;15.43;5.78;;;7.50;99.90;;;;;;5107018;28;20039;-82
2022/03/17 05:47:39;;;;;;;17.10;5.43;;;7.50;99.90;;;;;;5142832;28;20035;-82
2022/03/17 05:50:09;;;;;;;14.32;4.93;;;7.80;99.90;;;;;;5108049;28;20043;-82
2022/03/17 05:52:36;;;;;;;14.35;4.78;;;7.50;99.90;;;;;;5142538;28;20039;-82
2022/03/17 05:55:01;;;;;;;13.77;4.53;;;8.00;99.90;;;;;;5123778;28;20051;-82
2022/03/17 05:57:27;;;;;;;12.35;4.40;;;7.60;99.90;;;;;;5107942;28;20066;-82
2022/03/17 05:59:53;;;;;;;14.45;4.65;;;7.50;99.90;;;;;;5107266;28;20553;-82
2022/03/17 06:02:18;;;;;;;15.38;4.90;;;7.60;99.90;;;;;;5124596;28;20043;-82
2022/03/17 06:04:44;;;;;;;13.70;4.40;;;8.00;99.90;;;;;;5125011;28;20047;-82
2022/03/17 06:07:10;;;;;;;17.08;4.35;;;7.50;99.90;;;;;;5124288;28;20447;-82
2022/03/17 06:09:38;;;;;;;11.85;3.80;;;7.70;99.90;;;;;;5124151;28;20074;-82
2022/03/17 06:12:05;;;;;;;13.10;3.80;;;7.40;99.90;;;;;;5106561;28;20043;-82
2022/03/17 06:14:32;;;;;;;9.68;3.38;;;7.40;99.90;;;;;;5123680;28;20435;-82
2022/03/17 06:16:58;;;;;;;12.10;3.42;;;7.40;99.90;;;;;;5123710;28;20082;-82
2022/03/17 06:19:24;;;;;;;12.82;2.90;;;7.50;99.90;;;;;;5123672;28;20066;-82
2022/03/17 06:21:50;;;;;;;14.20;3.15;;;7.40;99.90;;;;;;5124018;28;20039;-82
2022/03/17 06:24:16;;;;;;;10.18;2.97;;;7.60;99.90;;;;;;5143222;28;20027;-82
2022/03/17 06:26:41;;;;;;;13.50;2.80;;;7.40;99.90;;;;;;5106749;28;20469;-82
2022/03/17 06:29:07;;;;;;;10.48;2.40;;;7.80;99.90;;;;;;5105818;28;20055;-82
2022/03/17 06:31:34;;;;;;;10.38;2.30;;;7.40;99.90;;;;;;5107121;28;20058;-82
2022/03/17 06:34:00;;;;;;;10.70;2.83;;;7.80;99.90;;;;;;5124684;28;20039;-82
2022/03/17 06:36:26;;;;;;;8.48;2.42;;;8.00;99.90;;;;;;5125889;27;20082;-82
2022/03/17 06:38:51;;;;;;;12.30;2.60;;;7.40;99.90;;;;;;5127565;27;20063;-82
2022/03/17 06:41:17;;;;;;;8.70;2.10;;;7.40;99.90;;;;;;5110216;27;20043;-83
2022/03/17 06:43:43;;;;;;;7.40;1.90;;;7.50;99.90;;;;;;5128129;27;20122;-82
2022/03/17 06:46:08;;;;;;;9.90;2.00;;;7.70;99.90;;;;;;5126724;27;20039;-84
2022/03/17 06:48:34;;;;;;;9.18;2.22;;;7.40;99.90;;;;;;5121272;27;20043;-83
2022/03/17 06:51:00;;;;;;;9.68;2.20;;;7.40;99.90;;;;;;5103724;27;20039;-83
2022/03/17 06:53:26;;;;;;;10.60;2.17;;;7.40;99.90;;;;;;5106032;27;20142;-83
2022/03/17 06:55:52;;;;;;;10.77;1.95;;;7.40;99.90;;;;;;5139382;27;20053;-83
2022/03/17 06:58:17;;;;;;;9.57;2.35;;;7.40;99.90;;;;;;5138810;27;20122;-83
2022/03/17 07:00:43;;;;;;;11.02;2.20;;;7.40;99.90;;;;;;5120105;27;20137;-83
2022/03/17 07:03:09;;;;;;;9.02;1.60;;;7.40;99.90;;;;;;5139194;27;20465;-83
2022/03/17 07:05:34;;;;;;;8.50;1.50;;;7.70;99.90;;;;;;5138727;27;20043;-83
2022/03/17 07:08:00;;;;;;;10.65;2.25;;;7.40;99.90;;;;;;5148594;27;20046;-83
2022/03/17 07:10:29;;;;;;;11.55;1.52;;;7.40;99.90;;;;;;5150638;27;20039;-83
2022/03/17 07:12:55;;;;;;;5.63;1.33;;;7.40;99.90;;;;;;5129252;27;20039;-83
2022/03/17 07:15:20;;;;;;;12.13;1.92;;;7.40;99.90;;;;;;5140967;27;20090;-83
2022/03/17 07:17:46;;;;;;;9.05;1.77;;;7.50;99.90;;;;;;5139323;27;20086;-83
2022/03/17 07:20:14;;;;;;;9.98;1.60;;;7.40;99.90;;;;;;5122241;27;20082;-83
2022/03/17 07:22:41;;;;;;;13.70;2.28;;;7.40;99.90;;;;;;5142072;27;20042;-83
2022/03/17 07:25:09;;;;;;;11.77;1.77;;;7.40;99.90;;;;;;5140795;27;20043;-83
2022/03/17 07:27:43;;;;;;;10.57;1.92;;;7.40;99.90;;;;;;5139880;27;20042;-83
2022/03/17 07:30:11;;;;;;;12.57;1.70;;;7.40;99.90;;;;;;5121967;27;20505;-83
2022/03/17 07:32:38;;;;;;;9.55;2.00;;;7.40;99.90;;;;;;5106580;27;20485;-83
2022/03/17 07:35:05;;;;;;;13.18;2.40;;;7.40;99.90;;;;;;5122994;27;20501;-83
2022/03/17 07:37:30;;;;;;;8.07;1.85;;;7.40;99.90;;;;;;5141619;27;20046;-83
2022/03/17 07:39:56;;;;;;;10.25;1.75;;;7.60;99.90;;;;;;5141555;27;20431;-83
2022/03/17 07:42:22;;;;;;;11.93;1.90;;;7.80;99.90;;;;;;5121308;27;20069;-83
2022/03/17 07:44:47;;;;;;;12.60;2.22;;;7.30;99.90;;;;;;5141944;27;20043;-84
2022/03/17 07:47:13;;;;;;;8.15;1.60;;;7.40;99.90;;;;;;5139375;27;20050;-83
2022/03/17 07:49:39;;;;;;;10.35;1.90;;;7.30;99.90;;;;;;5106618;27;20047;-83
2022/03/17 07:52:06;;;;;;;13.70;2.35;;;7.30;99.90;;;;;;5143764;27;20035;-83
2022/03/17 07:54:32;;;;;;;8.80;1.92;;;7.30;99.90;;;;;;5115067;27;20039;-83
2022/03/17 07:56:58;;;;;;;10.55;1.95;;;7.40;99.90;;;;;;5149522;27;20035;-83
2022/03/17 07:59:25;;;;;;;12.63;1.90;;;7.40;99.90;;;;;;5127587;27;20443;-83
2022/03/17 08:01:51;;;;;;;13.32;2.05;;;7.40;99.90;;;;;;5144805;27;20413;-82
2022/03/17 08:04:17;;;;;;;14.52;2.30;;;7.40;99.90;;;;;;5147408;27;20074;-82
2022/03/17 08:06:43;;;;;;;8.02;1.90;;;7.40;99.90;;;;;;5146885;27;20046;-82
2022/03/17 08:09:08;;;;;;;9.27;1.88;;;7.40;99.90;;;;;;5141498;27;20050;-82
2022/03/17 08:11:34;;;;;;;11.07;1.92;;;7.40;99.90;;;;;;5122297;27;20127;-82
2022/03/17 08:14:00;;;;;;;15.32;2.10;;;7.40;99.90;;;;;;5143648;27;20070;-81
2022/03/17 08:16:25;;;;;;;11.40;1.83;;;7.40;99.90;;;;;;5123391;27;20054;-83
2022/03/17 08:18:52;;;;;;;12.57;1.92;;;7.40;99.90;;;;;;5121392;27;20055;-82
2022/03/17 08:21:18;;;;;;;9.93;2.00;;;7.40;99.90;;;;;;5138442;27;20112;-82
2022/03/17 08:23:45;;;;;;;5.65;1.63;;;7.40;99.90;;;;;;5106937;27;20108;-82
2022/03/17 08:26:12;;;;;;;16.02;2.45;;;7.40;99.90;;;;;;5140332;27;20054;-82
2022/03/17 08:28:37;;;;;;;16.58;2.78;;;7.40;99.90;;;;;;5144168;27;20127;-82
2022/03/17 08:31:03;;;;;;;12.40;2.15;;;7.50;99.90;;;;;;5141975;27;20043;-82
2022/03/17 08:33:28;;;;;;;10.50;1.70;;;7.50;99.90;;;;;;5143799;27;20047;-82
2022/03/17 08:35:54;;;;;;;10.60;1.90;;;8.00;99.90;;;;;;5122144;27;20051;-82
2022/03/17 08:38:20;;;;;;;13.52;1.58;;;7.70;99.90;;;;;;5142442;27;20031;-82
2022/03/17 08:40:46;;;;;;;10.05;1.90;;;7.80;99.90;;;;;;5141944;27;20043;-82
2022/03/17 08:43:14;;;;;;;9.40;2.03;;;7.90;99.90;;;;;;5143332;27;20083;-82
2022/03/17 08:51:12;;;;;;;11.98;1.85;;;8.20;99.90;;;;;;5143512;27;20043;-82
2022/03/17 08:53:38;;;;;;;14.57;2.10;;;7.80;99.90;;;;;;5126000;27;20049;-82
2022/03/17 08:56:04;;;;;;;12.27;2.20;;;7.70;99.90;;;;;;5109489;27;20066;-82
2022/03/17 08:58:30;;;;;;;13.15;2.00;;;7.70;99.90;;;;;;5143332;27;20092;-82
2022/03/17 09:00:57;;;;;;;13.30;2.20;;;7.70;99.90;;;;;;5144902;27;20047;-82
2022/03/17 09:03:24;;;;;;;13.88;2.15;;;8.20;99.90;;;;;;5146760;27;20043;-82
2022/03/17 09:05:50;;;;;;;7.93;1.70;;;7.90;99.90;;;;;;5128945;27;20051;-82
2022/03/17 09:08:15;;;;;;;15.27;1.88;;;8.00;99.90;;;;;;5147982;27;20096;-83
2022/03/17 09:10:41;;;;;;;8.68;1.75;;;8.20;99.90;;;;;;5146147;27;20045;-83
2022/03/17 09:13:08;;;;;;;8.70;1.88;;;8.40;99.90;;;;;;5126071;27;20379;-84
2022/03/17 09:15:36;;;;;;;11.20;1.50;;;8.60;99.90;;;;;;5143589;27;20094;-83
2022/03/17 09:18:02;;;;;;;8.85;1.33;;;9.30;99.90;;;;;;5144514;27;20055;-83
2022/03/17 09:20:28;;;;;;;10.25;1.50;;;8.90;99.90;;;;;;5143738;27;20050;-83
2022/03/17 09:22:56;;;;;;;8.05;1.60;;;9.10;99.90;;;;;;5143276;27;20045;-84
2022/03/17 09:25:25;;;;;;;8.85;1.63;;;9.10;99.90;;;;;;5107879;28;20039;-83
2022/03/17 09:27:51;;;;;;;7.80;1.85;;;9.10;99.90;;;;;;5123088;28;20084;-84
2022/03/17 09:30:17;;;;;;;6.75;1.20;;;9.20;99.90;;;;;;5122705;28;20047;-83
2022/03/17 09:32:45;;;;;;;9.98;1.70;;;9.40;99.90;;;;;;5142659;28;20053;-83
2022/03/17 09:35:11;;;;;;;6.28;1.40;;;9.60;99.90;;;;;;5141862;28;20122;-83
2022/03/17 09:37:38;;;;;;;7.95;1.75;;;9.20;99.90;;;;;;5140208;28;20092;-84
2022/03/17 09:40:06;;;;;;;10.00;1.45;;;9.20;99.90;;;;;;5140408;28;20035;-84
2022/03/17 09:42:31;;;;;;;7.75;1.77;;;9.20;99.90;;;;;;5120416;28;20159;-81
2022/03/17 09:44:57;;;;;;;9.40;1.50;;;9.10;99.90;;;;;;5120851;28;20070;-82
2022/03/17 09:47:27;;;;;;;12.55;1.80;;;9.30;99.90;;;;;;5119720;28;20421;-82
2022/03/17 09:49:54;;;;;;;5.78;1.50;;;9.50;99.90;;;;;;5096243;28;20470;-83
2022/03/17 09:52:23;;;;;;;8.02;1.42;;;9.40;99.90;;;;;;5114012;28;20475;-84
2022/03/17 09:54:52;;;;;;;9.05;1.65;;;9.30;99.90;;;;;;5112973;28;20036;-83
2022/03/17 09:57:18;;;;;;;7.75;1.58;;;9.50;99.90;;;;;;5113270;28;20043;-83
2022/03/17 09:59:45;;;;;;;7.63;1.58;;;9.70;99.90;;;;;;5113795;28;20059;-83
2022/03/17 10:02:17;;;;;;;11.75;1.95;;;9.80;99.90;;;;;;5113157;28;20085;-83
2022/03/17 10:04:44;;;;;;;6.40;1.30;;;10.20;99.90;;;;;;5113232;28;20441;-84
2022/03/17 10:07:16;;;;;;;10.00;1.63;;;10.10;99.90;;;;;;5115428;28;20050;-84
2022/03/17 10:09:43;;;;;;;11.15;1.85;;;10.00;99.90;;;;;;5113248;28;20077;-84
2022/03/17 10:12:11;;;;;;;11.63;2.28;;;10.00;99.90;;;;;;5116908;28;20079;-84
2022/03/17 10:14:45;;;;;;;7.32;1.60;;;9.90;99.90;;;;;;5117247;28;20085;-84
2022/03/17 10:17:31;;;;;;;7.87;1.70;;;10.00;99.90;;;;;;5117015;28;20447;-84
2022/03/17 10:20:18;;;;;;;12.73;1.60;;;10.20;99.90;;;;;;5116958;28;20301;-84
2022/03/17 10:22:46;;;;;;;7.18;1.50;;;10.30;99.90;;;;;;5116447;28;20290;-84
2022/03/17 10:25:17;;;;;;;8.93;1.50;;;10.80;99.90;;;;;;5100825;28;20082;-84
2022/03/17 10:27:45;;;;;;;10.20;2.13;;;10.40;99.90;;;;;;5118964;28;20212;-84
2022/03/17 10:30:15;;;;;;;8.27;1.83;;;10.20;99.90;;;;;;5116668;28;20086;-84
2022/03/17 10:32:57;;;;;;;10.10;2.05;;;10.20;99.90;;;;;;5116336;28;20035;-84
2022/03/17 10:35:34;;;;;;;10.52;1.60;;;10.50;99.90;;;;;;5116608;28;20123;-84
2022/03/17 10:38:09;;;;;;;7.95;1.50;;;10.50;99.90;;;;;;5116193;28;20082;-84
2022/03/17 10:40:35;;;;;;;8.88;2.15;;;11.00;99.90;;;;;;5116297;28;20518;-84
2022/03/17 10:43:24;;;;;;;10.15;1.77;;;10.80;99.90;;;;;;5116217;28;20083;-84
2022/03/17 10:46:12;;;;;;;9.07;1.90;;;10.80;99.90;;;;;;5116446;28;20085;-84
2022/03/17 10:48:55;;;;;;;6.07;1.77;;;10.70;99.90;;;;;;5116333;28;20508;-84
2022/03/17 10:51:37;;;;;;;11.00;2.40;;;10.70;99.90;;;;;;5116583;28;20035;-84
2022/03/17 10:54:06;;;;;;;8.50;2.13;;;11.00;99.90;;;;;;5117060;28;20159;-84
2022/03/17 10:56:33;;;;;;;8.75;1.77;;;11.20;99.90;;;;;;5116087;28;20101;-84
2022/03/17 10:59:00;;;;;;;9.45;1.88;;;11.50;99.90;;;;;;5116023;28;20130;-84
2022/03/17 11:01:55;;;;;;;12.48;2.50;;;11.60;99.90;;;;;;5115783;28;20047;-84
2022/03/17 11:04:21;;;;;;;10.02;2.20;;;11.40;99.90;;;;;;5039408;28;20119;-83
2022/03/17 11:06:47;;;;;;;8.70;1.63;;;11.60;99.90;;;;;;5038131;28;20036;-85
2022/03/17 11:09:12;;;;;;;9.75;2.00;;;11.70;99.90;;;;;;5021539;28;20565;-84
2022/03/17 11:11:38;;;;;;;10.52;2.08;;;11.80;99.90;;;;;;5037694;28;20048;-84
2022/03/17 11:14:09;;;;;;;9.15;2.10;;;11.90;99.90;;;;;;5021299;28;20063;-84
2022/03/17 11:16:43;;;;;;;8.68;2.08;;;11.60;99.90;;;;;;5037266;28;20068;-84
2022/03/17 11:19:12;;;;;;;10.77;1.90;;;11.30;99.90;;;;;;5037750;28;20480;-84
2022/03/17 11:21:44;;;;;;;8.13;1.80;;;11.20;99.90;;;;;;5038430;28;20137;-84
2022/03/17 11:24:18;;;;;;;9.40;2.00;;;11.20;99.90;;;;;;5046882;28;20049;-84
2022/03/17 11:26:45;;;;;;;9.27;2.03;;;11.30;99.90;;;;;;5030330;28;20499;-84
2022/03/17 11:29:17;;;;;;;7.10;1.58;;;11.40;99.90;;;;;;5044076;28;20091;-84
2022/03/17 11:31:52;;;;;;;9.57;2.53;;;11.40;99.90;;;;;;5038745;28;20052;-84
2022/03/17 11:34:39;;;;;;;9.30;2.30;;;11.40;99.90;;;;;;5038101;28;20539;-84
2022/03/17 11:37:15;;;;;;;10.77;2.03;;;11.60;99.90;;;;;;5037190;28;20053;-84
2022/03/17 11:39:58;;;;;;;6.63;2.33;;;11.70;99.90;;;;;;5041941;28;20052;-84
2022/03/17 11:42:35;;;;;;;7.82;1.80;;;12.50;99.90;;;;;;5115665;28;20051;-84
2022/03/17 11:45:13;;;;;;;11.45;1.95;;;12.20;99.90;;;;;;5117178;28;20040;-84
2022/03/17 11:48:00;;;;;;;9.63;1.65;;;12.30;99.90;;;;;;5117187;28;20039;-84
2022/03/17 11:50:36;;;;;;;8.40;1.75;;;12.30;99.90;;;;;;5116559;28;20444;-84
2022/03/17 11:53:14;;;;;;;8.27;2.00;;;12.30;99.90;;;;;;5114974;28;20054;-83
2022/03/17 11:55:46;;;;;;;7.80;1.92;;;12.30;99.90;;;;;;5116402;28;20039;-84
2022/03/17 11:58:39;;;;;;;6.55;2.05;;;12.30;99.90;;;;;;5117194;28;20048;-83
2022/03/17 12:01:25;;;;;;;8.25;1.42;;;12.00;99.90;;;;;;5116187;28;20379;-83
2022/03/17 12:03:54;;;;;;;;;;;12.00;99.90;;;;;;5116938;28;20051;-84
2022/03/17 12:06:31;;;;;;;6.63;1.95;;;11.80;99.90;;;;;;5116704;28;20395;-84
2022/03/17 12:09:01;;;;;;;8.93;1.95;;;11.60;99.90;;;;;;5115027;28;20168;-84
2022/03/17 12:11:42;;;;;;;6.70;1.63;;;11.50;99.90;;;;;;5107594;28;20046;-84
2022/03/17 12:14:18;;;;;;;8.65;2.03;;;11.20;99.90;;;;;;5106828;28;20462;-83
2022/03/17 12:17:16;;;;;;;10.45;1.95;;;11.30;99.90;;;;;;5115418;28;20105;-84
2022/03/17 12:19:49;;;;;;;9.38;1.77;;;11.40;99.90;;;;;;5115133;28;20047;-84
2022/03/17 12:22:17;;;;;;;7.15;1.90;;;11.30;99.90;;;;;;5115343;28;20100;-84
2022/03/17 12:25:01;;;;;;;7.60;1.60;;;11.60;99.90;;;;;;5123444;28;20114;-83
2022/03/17 12:27:29;;;;;;;13.00;2.53;;;12.00;99.90;;;;;;5122950;28;20043;-84
2022/03/17 12:30:06;;;;;;;11.73;1.92;;;12.30;99.90;;;;;;5120597;28;20078;-84
2022/03/17 12:32:40;;;;;;;14.10;2.17;;;12.10;99.90;;;;;;5117418;28;20031;-84
2022/03/17 12:35:09;;;;;;;9.60;2.38;;;12.10;99.90;;;;;;5115821;28;20048;-84
2022/03/17 12:37:35;;;;;;;8.93;1.70;;;12.10;99.90;;;;;;5114654;28;20521;-82
2022/03/17 12:40:07;;;;;;;8.35;1.50;;;12.20;99.90;;;;;;5116134;28;20044;-82
2022/03/17 12:42:42;;;;;;;9.50;2.10;;;11.60;99.90;;;;;;5097989;28;20465;-82
2022/03/17 12:45:12;;;;;;;10.05;1.83;;;12.30;99.90;;;;;;5114852;28;20406;-83
2022/03/17 12:47:40;;;;;;;8.23;1.63;;;11.90;99.90;;;;;;5114361;28;20079;-83
2022/03/17 12:50:11;;;;;;;10.27;2.13;;;12.10;99.90;;;;;;5114766;28;20054;-83
2022/03/17 12:52:40;;;;;;;7.70;1.73;;;12.10;99.90;;;;;;5114096;28;20043;-83
2022/03/17 12:55:09;;;;;;;10.02;1.92;;;12.20;99.90;;;;;;5097244;28;20059;-83
2022/03/17 12:57:37;;;;;;;8.00;1.55;;;12.30;99.90;;;;;;5113831;28;20044;-83
2022/03/17 13:00:04;;;;;;;10.95;1.90;;;12.40;99.90;;;;;;5115503;28;20047;-83
2022/03/17 13:02:30;;;;;;;6.55;1.73;;;12.70;99.90;;;;;;5113510;28;20496;-83
2022/03/17 13:04:58;;;;;;;11.35;2.00;;;13.00;99.90;;;;;;5115124;28;20513;-82
2022/03/17 13:07:27;;;;;;;7.10;1.77;;;13.40;99.90;;;;;;5114700;28;20051;-84